ITY023 LIMC-LGSK
Flight info
| Callsign | ITY023 |
|---|---|
| Flight time | 1h 53m |
| Altitude | 37000 |
| Route | VAKON DCT IBUPU DCT NIKOL DCT TAZ DCT MAVAR DCT TALAS UN130 TSL |
| Aircraft | A320/M-SDE3FGHIRWY/LB1 |
Departure
| Time | 2026-04-20 19:40 |
|---|---|
| Airport | Milan Malpensa International Airport (LIMC) |
Arrival
| Time | 2026-04-20 21:34 |
|---|---|
| Airport | Skiathos Island National Airport (LGSK) |
| Time | Latitude | Longitude | Altitude | Speed | Heading |
|---|---|---|---|---|---|
| 2026-04-20 19:09 | 45.64604 | 8.72506 | 736 ft | 0 kts | 259° |
| 2026-04-20 19:26 | 45.64608 | 8.72538 | 736 ft | 4 kts | 255° |
| 2026-04-20 19:26 | 45.64617 | 8.72574 | 734 ft | 4 kts | 244° |
| 2026-04-20 19:27 | 45.64631 | 8.72605 | 735 ft | 4 kts | 213° |
| 2026-04-20 19:27 | 45.64647 | 8.72612 | 734 ft | 1 kts | 169° |
| 2026-04-20 19:27 | 45.64651 | 8.72611 | 736 ft | 0 kts | 169° |
| 2026-04-20 19:31 | 45.64623 | 8.72619 | 735 ft | 9 kts | 169° |
| 2026-04-20 19:31 | 45.64564 | 8.72636 | 723 ft | 8 kts | 169° |
| 2026-04-20 19:32 | 45.64490 | 8.72628 | 734 ft | 14 kts | 220° |
| 2026-04-20 19:32 | 45.64459 | 8.72506 | 736 ft | 12 kts | 259° |
| 2026-04-20 19:32 | 45.64425 | 8.72434 | 736 ft | 8 kts | 197° |
| 2026-04-20 19:32 | 45.64357 | 8.72451 | 735 ft | 11 kts | 154° |
| 2026-04-20 19:33 | 45.64280 | 8.72467 | 736 ft | 11 kts | 172° |
| 2026-04-20 19:33 | 45.64192 | 8.72491 | 736 ft | 15 kts | 168° |
| 2026-04-20 19:33 | 45.64085 | 8.72521 | 736 ft | 16 kts | 169° |
| 2026-04-20 19:33 | 45.63970 | 8.72561 | 736 ft | 18 kts | 169° |
| 2026-04-20 19:34 | 45.63843 | 8.72597 | 736 ft | 19 kts | 169° |
| 2026-04-20 19:34 | 45.63708 | 8.72633 | 735 ft | 21 kts | 169° |
| 2026-04-20 19:34 | 45.63563 | 8.72674 | 735 ft | 22 kts | 169° |
| 2026-04-20 19:34 | 45.63409 | 8.72716 | 735 ft | 23 kts | 169° |
| 2026-04-20 19:35 | 45.63248 | 8.72760 | 736 ft | 24 kts | 169° |
| 2026-04-20 19:35 | 45.63080 | 8.72806 | 736 ft | 25 kts | 169° |
| 2026-04-20 19:35 | 45.62907 | 8.72853 | 736 ft | 26 kts | 169° |
| 2026-04-20 19:35 | 45.62730 | 8.72902 | 736 ft | 26 kts | 169° |
| 2026-04-20 19:36 | 45.62549 | 8.72952 | 737 ft | 26 kts | 169° |
| 2026-04-20 19:36 | 45.62369 | 8.73001 | 736 ft | 26 kts | 169° |
| 2026-04-20 19:36 | 45.62187 | 8.73051 | 735 ft | 27 kts | 169° |
| 2026-04-20 19:36 | 45.62005 | 8.73101 | 737 ft | 27 kts | 169° |
| 2026-04-20 19:37 | 45.61844 | 8.73146 | 737 ft | 22 kts | 169° |
| 2026-04-20 19:37 | 45.61725 | 8.73237 | 737 ft | 20 kts | 127° |
| 2026-04-20 19:37 | 45.61648 | 8.73401 | 737 ft | 18 kts | 124° |
| 2026-04-20 19:37 | 45.61633 | 8.73434 | 737 ft | 0 kts | 124° |
| 2026-04-20 19:38 | 45.61626 | 8.73448 | 737 ft | 6 kts | 124° |
| 2026-04-20 19:38 | 45.61604 | 8.73496 | 737 ft | 5 kts | 118° |
| 2026-04-20 19:38 | 45.61593 | 8.73533 | 737 ft | 3 kts | 111° |
| 2026-04-20 19:39 | 45.61586 | 8.73601 | 737 ft | 8 kts | 89° |
| 2026-04-20 19:39 | 45.61604 | 8.73690 | 737 ft | 13 kts | 57° |
| 2026-04-20 19:39 | 45.61673 | 8.73721 | 737 ft | 9 kts | 352° |
| 2026-04-20 19:39 | 45.61727 | 8.73706 | 737 ft | 10 kts | 348° |
| 2026-04-20 19:40 | 45.61962 | 8.73642 | 736 ft | 71 kts | 349° |
| 2026-04-20 19:40 | 45.62671 | 8.73446 | 740 ft | 134 kts | 349° |
| 2026-04-20 19:40 | 45.63753 | 8.73151 | 868 ft | 169 kts | 349° |
| 2026-04-20 19:40 | 45.64908 | 8.73098 | 1484 ft | 170 kts | 16° |
| 2026-04-20 19:41 | 45.65903 | 8.73991 | 2123 ft | 172 kts | 50° |
| 2026-04-20 19:41 | 45.66463 | 8.75516 | 2699 ft | 180 kts | 70° |
| 2026-04-20 19:41 | 45.67161 | 8.77103 | 2966 ft | 202 kts | 41° |
| 2026-04-20 19:41 | 45.68294 | 8.78397 | 3440 ft | 213 kts | 38° |
| 2026-04-20 19:42 | 45.69464 | 8.79741 | 3941 ft | 220 kts | 38° |
| 2026-04-20 19:42 | 45.70635 | 8.81105 | 4365 ft | 219 kts | 38° |
| 2026-04-20 19:42 | 45.71787 | 8.82573 | 4976 ft | 231 kts | 52° |
| 2026-04-20 19:42 | 45.72451 | 8.84766 | 5324 ft | 255 kts | 84° |
| 2026-04-20 19:43 | 45.72197 | 8.87356 | 5783 ft | 273 kts | 107° |
| 2026-04-20 19:43 | 45.71643 | 8.89991 | 6558 ft | 279 kts | 107° |
| 2026-04-20 19:43 | 45.71067 | 8.92664 | 7373 ft | 283 kts | 107° |
| 2026-04-20 19:43 | 45.70481 | 8.95375 | 8195 ft | 287 kts | 107° |
| 2026-04-20 19:44 | 45.69887 | 8.98124 | 9031 ft | 291 kts | 107° |
| 2026-04-20 19:44 | 45.69288 | 9.00908 | 9845 ft | 295 kts | 107° |
| 2026-04-20 19:44 | 45.68674 | 9.03786 | 10251 ft | 314 kts | 106° |
| 2026-04-20 19:44 | 45.68019 | 9.06887 | 10477 ft | 337 kts | 106° |
| 2026-04-20 19:45 | 45.67338 | 9.10111 | 10971 ft | 348 kts | 106° |
| 2026-04-20 19:45 | 45.66630 | 9.13445 | 11637 ft | 354 kts | 106° |
| 2026-04-20 19:45 | 45.65906 | 9.16843 | 12310 ft | 360 kts | 106° |
| 2026-04-20 19:45 | 45.65169 | 9.20292 | 12993 ft | 365 kts | 107° |
| 2026-04-20 19:46 | 45.64418 | 9.23789 | 13666 ft | 371 kts | 107° |
| 2026-04-20 19:46 | 45.63658 | 9.27336 | 14241 ft | 376 kts | 107° |
| 2026-04-20 19:46 | 45.62887 | 9.30934 | 14820 ft | 381 kts | 107° |
| 2026-04-20 19:46 | 45.62102 | 9.34581 | 15398 ft | 386 kts | 107° |
| 2026-04-20 19:47 | 45.61318 | 9.38221 | 16113 ft | 391 kts | 107° |
| 2026-04-20 19:47 | 45.60512 | 9.41963 | 16697 ft | 397 kts | 107° |
| 2026-04-20 19:47 | 45.59696 | 9.45744 | 17267 ft | 401 kts | 107° |
| 2026-04-20 19:47 | 45.58869 | 9.49576 | 17838 ft | 406 kts | 107° |
| 2026-04-20 19:48 | 45.58032 | 9.53448 | 18400 ft | 411 kts | 107° |
| 2026-04-20 19:48 | 45.57184 | 9.57364 | 18858 ft | 415 kts | 107° |
| 2026-04-20 19:48 | 45.56326 | 9.61308 | 19003 ft | 417 kts | 107° |
| 2026-04-20 19:48 | 45.55462 | 9.65260 | 19184 ft | 419 kts | 107° |
| 2026-04-20 19:49 | 45.54589 | 9.69238 | 19618 ft | 422 kts | 107° |
| 2026-04-20 19:49 | 45.53713 | 9.73240 | 20147 ft | 425 kts | 107° |
| 2026-04-20 19:49 | 45.52842 | 9.77222 | 20674 ft | 428 kts | 107° |
| 2026-04-20 19:49 | 45.51949 | 9.81288 | 21197 ft | 431 kts | 107° |
| 2026-04-20 19:50 | 45.51046 | 9.85383 | 21700 ft | 435 kts | 107° |
| 2026-04-20 19:50 | 45.50133 | 9.89515 | 22211 ft | 439 kts | 107° |
| 2026-04-20 19:50 | 45.49212 | 9.93675 | 22697 ft | 442 kts | 107° |
| 2026-04-20 19:50 | 45.48273 | 9.97861 | 23189 ft | 445 kts | 109° |
| 2026-04-20 19:51 | 45.47033 | 10.01919 | 23621 ft | 449 kts | 119° |
| 2026-04-20 19:51 | 45.45477 | 10.05793 | 23998 ft | 452 kts | 121° |
| 2026-04-20 19:51 | 45.43898 | 10.09675 | 24379 ft | 455 kts | 121° |
| 2026-04-20 19:51 | 45.42332 | 10.13536 | 24749 ft | 458 kts | 121° |
| 2026-04-20 19:52 | 45.40736 | 10.17486 | 25090 ft | 462 kts | 121° |
| 2026-04-20 19:52 | 45.39128 | 10.21459 | 25441 ft | 465 kts | 121° |
| 2026-04-20 19:52 | 45.37503 | 10.25461 | 25781 ft | 468 kts | 121° |
| 2026-04-20 19:52 | 45.35869 | 10.29480 | 26122 ft | 471 kts | 121° |
| 2026-04-20 19:53 | 45.34220 | 10.33525 | 26489 ft | 474 kts | 121° |
| 2026-04-20 19:53 | 45.32560 | 10.37595 | 26824 ft | 477 kts | 121° |
| 2026-04-20 19:53 | 45.30889 | 10.41683 | 27150 ft | 480 kts | 122° |
| 2026-04-20 19:53 | 45.29206 | 10.45791 | 27444 ft | 483 kts | 122° |
| 2026-04-20 19:54 | 45.27537 | 10.49860 | 27814 ft | 483 kts | 122° |
| 2026-04-20 19:54 | 45.25845 | 10.53990 | 28170 ft | 485 kts | 122° |
| 2026-04-20 19:54 | 45.24141 | 10.58142 | 28486 ft | 488 kts | 122° |
| 2026-04-20 19:54 | 45.22430 | 10.62311 | 28777 ft | 490 kts | 122° |
| 2026-04-20 19:55 | 45.20707 | 10.66499 | 29069 ft | 493 kts | 122° |
| 2026-04-20 19:55 | 45.18972 | 10.70703 | 29362 ft | 496 kts | 122° |
| 2026-04-20 19:55 | 45.17291 | 10.74983 | 29639 ft | 499 kts | 117° |
| 2026-04-20 19:55 | 45.15881 | 10.79495 | 29904 ft | 502 kts | 114° |
| 2026-04-20 19:56 | 45.14961 | 10.82504 | 30084 ft | 504 kts | 115° |
| 2026-04-20 19:56 | 45.13087 | 10.88624 | 30327 ft | 508 kts | 115° |
| 2026-04-20 19:56 | 45.11698 | 10.93161 | 30539 ft | 510 kts | 115° |
| 2026-04-20 19:56 | 45.10283 | 10.97769 | 30748 ft | 512 kts | 115° |
| 2026-04-20 19:57 | 45.08856 | 11.02390 | 30957 ft | 513 kts | 115° |
| 2026-04-20 19:57 | 45.07419 | 11.07022 | 31160 ft | 515 kts | 115° |
| 2026-04-20 19:57 | 45.05974 | 11.11667 | 31355 ft | 517 kts | 115° |
| 2026-04-20 19:57 | 45.04524 | 11.16323 | 31540 ft | 518 kts | 115° |
| 2026-04-20 19:58 | 45.03071 | 11.20991 | 31774 ft | 518 kts | 115° |
| 2026-04-20 19:58 | 45.01620 | 11.25645 | 32044 ft | 517 kts | 115° |
| 2026-04-20 19:58 | 45.00188 | 11.30225 | 32325 ft | 516 kts | 115° |
| 2026-04-20 19:58 | 44.98741 | 11.34858 | 32598 ft | 515 kts | 115° |
| 2026-04-20 19:59 | 44.97293 | 11.39487 | 32832 ft | 515 kts | 115° |
| 2026-04-20 19:59 | 44.95841 | 11.44116 | 33080 ft | 515 kts | 115° |
| 2026-04-20 19:59 | 44.94391 | 11.48734 | 33323 ft | 515 kts | 115° |
| 2026-04-20 19:59 | 44.92937 | 11.53357 | 33555 ft | 516 kts | 115° |
| 2026-04-20 20:00 | 44.91478 | 11.57986 | 33758 ft | 517 kts | 115° |
| 2026-04-20 20:00 | 44.90013 | 11.62620 | 33975 ft | 517 kts | 115° |
| 2026-04-20 20:00 | 44.88563 | 11.67190 | 34171 ft | 517 kts | 115° |
| 2026-04-20 20:00 | 44.87092 | 11.71813 | 34392 ft | 517 kts | 115° |
| 2026-04-20 20:01 | 44.85623 | 11.76430 | 34624 ft | 516 kts | 115° |
| 2026-04-20 20:01 | 44.84155 | 11.81041 | 34841 ft | 515 kts | 115° |
| 2026-04-20 20:01 | 44.82687 | 11.85638 | 35080 ft | 514 kts | 115° |
| 2026-04-20 20:01 | 44.81220 | 11.90230 | 35286 ft | 514 kts | 115° |
| 2026-04-20 20:02 | 44.79753 | 11.94815 | 35477 ft | 513 kts | 115° |
| 2026-04-20 20:02 | 44.78286 | 11.99395 | 35675 ft | 513 kts | 115° |
| 2026-04-20 20:02 | 44.76839 | 12.03904 | 35869 ft | 512 kts | 115° |
| 2026-04-20 20:02 | 44.75374 | 12.08460 | 36042 ft | 511 kts | 115° |
| 2026-04-20 20:03 | 44.73906 | 12.13013 | 36240 ft | 511 kts | 115° |
| 2026-04-20 20:03 | 44.72438 | 12.17557 | 36408 ft | 510 kts | 115° |
| 2026-04-20 20:03 | 44.70972 | 12.22086 | 36604 ft | 508 kts | 115° |
| 2026-04-20 20:03 | 44.69509 | 12.26606 | 36788 ft | 507 kts | 115° |
| 2026-04-20 20:04 | 44.68048 | 12.31116 | 36900 ft | 507 kts | 115° |
| 2026-04-20 20:04 | 44.65124 | 12.40098 | 36912 ft | 505 kts | 115° |
| 2026-04-20 20:05 | 44.62213 | 12.48992 | 36923 ft | 505 kts | 115° |
| 2026-04-20 20:05 | 44.59278 | 12.57929 | 36915 ft | 504 kts | 115° |
| 2026-04-20 20:06 | 44.56346 | 12.66867 | 36924 ft | 504 kts | 115° |
| 2026-04-20 20:06 | 44.53403 | 12.75797 | 36934 ft | 505 kts | 115° |
| 2026-04-20 20:07 | 44.50468 | 12.84656 | 36935 ft | 505 kts | 116° |
| 2026-04-20 20:07 | 44.47505 | 12.93562 | 36940 ft | 505 kts | 115° |
| 2026-04-20 20:08 | 44.44541 | 13.02472 | 36949 ft | 505 kts | 116° |
| 2026-04-20 20:08 | 44.41570 | 13.11368 | 36933 ft | 504 kts | 116° |
| 2026-04-20 20:09 | 44.38613 | 13.20192 | 36952 ft | 504 kts | 116° |
| 2026-04-20 20:09 | 44.35631 | 13.29068 | 36958 ft | 505 kts | 116° |
| 2026-04-20 20:10 | 44.32632 | 13.37935 | 36951 ft | 505 kts | 116° |
| 2026-04-20 20:10 | 44.29621 | 13.46804 | 36953 ft | 505 kts | 116° |
| 2026-04-20 20:11 | 44.26627 | 13.55605 | 36965 ft | 506 kts | 116° |
| 2026-04-20 20:11 | 44.23604 | 13.64474 | 36960 ft | 507 kts | 116° |
| 2026-04-20 20:12 | 44.20566 | 13.73333 | 36963 ft | 507 kts | 116° |
| 2026-04-20 20:12 | 44.17507 | 13.82186 | 36967 ft | 507 kts | 116° |
| 2026-04-20 20:13 | 44.12881 | 13.95429 | 36958 ft | 507 kts | 116° |
| 2026-04-20 20:13 | 44.09811 | 14.04193 | 36962 ft | 507 kts | 116° |
| 2026-04-20 20:14 | 44.06721 | 14.12996 | 36968 ft | 507 kts | 116° |
| 2026-04-20 20:14 | 44.03631 | 14.21798 | 36972 ft | 507 kts | 116° |
| 2026-04-20 20:15 | 44.00557 | 14.30538 | 36975 ft | 507 kts | 116° |
| 2026-04-20 20:15 | 43.97445 | 14.39337 | 36945 ft | 509 kts | 116° |
| 2026-04-20 20:16 | 43.94303 | 14.48161 | 36946 ft | 511 kts | 116° |
| 2026-04-20 20:16 | 43.91151 | 14.56999 | 36956 ft | 512 kts | 116° |
| 2026-04-20 20:17 | 43.87983 | 14.65856 | 36964 ft | 513 kts | 117° |
| 2026-04-20 20:17 | 43.84804 | 14.74708 | 36972 ft | 513 kts | 117° |
| 2026-04-20 20:18 | 43.81642 | 14.83510 | 36979 ft | 514 kts | 117° |
| 2026-04-20 20:18 | 43.78451 | 14.92365 | 36996 ft | 514 kts | 117° |
| 2026-04-20 20:19 | 43.75242 | 15.01213 | 36996 ft | 515 kts | 117° |
| 2026-04-20 20:19 | 43.72026 | 15.10066 | 36992 ft | 515 kts | 117° |
| 2026-04-20 20:20 | 43.68826 | 15.18860 | 36989 ft | 516 kts | 117° |
| 2026-04-20 20:20 | 43.65594 | 15.27700 | 36987 ft | 516 kts | 117° |
| 2026-04-20 20:21 | 43.62350 | 15.36538 | 36998 ft | 516 kts | 117° |
| 2026-04-20 20:21 | 43.59103 | 15.45368 | 36991 ft | 516 kts | 117° |
| 2026-04-20 20:22 | 43.55841 | 15.54191 | 36994 ft | 516 kts | 117° |
| 2026-04-20 20:22 | 43.52600 | 15.62949 | 36974 ft | 516 kts | 117° |
| 2026-04-20 20:23 | 43.49330 | 15.71765 | 36998 ft | 517 kts | 117° |
| 2026-04-20 20:23 | 43.46044 | 15.80566 | 36996 ft | 517 kts | 117° |
| 2026-04-20 20:24 | 43.43314 | 15.87879 | 36995 ft | 517 kts | 117° |
| 2026-04-20 20:24 | 43.40029 | 15.96670 | 36997 ft | 517 kts | 117° |
| 2026-04-20 20:25 | 43.36337 | 16.06974 | 37002 ft | 516 kts | 115° |
| 2026-04-20 20:25 | 43.33254 | 16.15881 | 37002 ft | 516 kts | 115° |
| 2026-04-20 20:26 | 43.30682 | 16.23269 | 36998 ft | 516 kts | 115° |
| 2026-04-20 20:26 | 43.27547 | 16.32119 | 36997 ft | 516 kts | 116° |
| 2026-04-20 20:27 | 43.23875 | 16.42373 | 37004 ft | 515 kts | 116° |
| 2026-04-20 20:27 | 43.20724 | 16.51181 | 36995 ft | 514 kts | 116° |
| 2026-04-20 20:28 | 43.18104 | 16.58488 | 37001 ft | 514 kts | 116° |
| 2026-04-20 20:28 | 43.14945 | 16.67266 | 37008 ft | 513 kts | 116° |
| 2026-04-20 20:29 | 43.11788 | 16.76027 | 37007 ft | 513 kts | 116° |
| 2026-04-20 20:29 | 43.08626 | 16.84771 | 37010 ft | 513 kts | 116° |
| 2026-04-20 20:30 | 43.05452 | 16.93498 | 37015 ft | 512 kts | 116° |
| 2026-04-20 20:30 | 43.02302 | 17.02155 | 37013 ft | 512 kts | 116° |
| 2026-04-20 20:31 | 42.99124 | 17.10857 | 37021 ft | 511 kts | 116° |
| 2026-04-20 20:31 | 42.95940 | 17.19538 | 37017 ft | 511 kts | 116° |
| 2026-04-20 20:32 | 42.92756 | 17.28210 | 37014 ft | 511 kts | 116° |
| 2026-04-20 20:32 | 42.89588 | 17.36811 | 37012 ft | 511 kts | 116° |
| 2026-04-20 20:33 | 42.86391 | 17.45457 | 36996 ft | 511 kts | 116° |
| 2026-04-20 20:33 | 42.83190 | 17.54094 | 37001 ft | 511 kts | 116° |
| 2026-04-20 20:34 | 42.79983 | 17.62720 | 37010 ft | 510 kts | 116° |
| 2026-04-20 20:34 | 42.76786 | 17.71277 | 37011 ft | 511 kts | 116° |
| 2026-04-20 20:35 | 42.73561 | 17.79883 | 37011 ft | 510 kts | 116° |
| 2026-04-20 20:35 | 42.70340 | 17.88472 | 37019 ft | 510 kts | 117° |
| 2026-04-20 20:36 | 42.67115 | 17.97046 | 37016 ft | 509 kts | 117° |
| 2026-04-20 20:36 | 42.63876 | 18.05601 | 37019 ft | 509 kts | 117° |
| 2026-04-20 20:37 | 42.60663 | 18.14079 | 37019 ft | 508 kts | 117° |
| 2026-04-20 20:37 | 42.57417 | 18.22602 | 37016 ft | 508 kts | 117° |
| 2026-04-20 20:38 | 42.54173 | 18.31121 | 36989 ft | 508 kts | 117° |
| 2026-04-20 20:38 | 42.50925 | 18.39627 | 36998 ft | 508 kts | 117° |
| 2026-04-20 20:39 | 42.47672 | 18.48122 | 37012 ft | 507 kts | 117° |
| 2026-04-20 20:39 | 42.44434 | 18.56527 | 37014 ft | 507 kts | 117° |
| 2026-04-20 20:40 | 42.41178 | 18.64981 | 37019 ft | 506 kts | 117° |
| 2026-04-20 20:40 | 42.37918 | 18.73422 | 37019 ft | 506 kts | 117° |
| 2026-04-20 20:41 | 42.34650 | 18.81852 | 37038 ft | 506 kts | 117° |
| 2026-04-20 20:41 | 42.31393 | 18.90208 | 37038 ft | 505 kts | 117° |
| 2026-04-20 20:42 | 42.28117 | 18.98599 | 37040 ft | 505 kts | 117° |
| 2026-04-20 20:42 | 42.24838 | 19.06981 | 37039 ft | 505 kts | 117° |
| 2026-04-20 20:43 | 42.21551 | 19.15351 | 37054 ft | 505 kts | 118° |
| 2026-04-20 20:43 | 42.18260 | 19.23702 | 37017 ft | 504 kts | 118° |
| 2026-04-20 20:44 | 42.14990 | 19.31989 | 37026 ft | 504 kts | 118° |
| 2026-04-20 20:44 | 42.11695 | 19.40328 | 37035 ft | 504 kts | 118° |
| 2026-04-20 20:45 | 42.08395 | 19.48649 | 37043 ft | 504 kts | 118° |
| 2026-04-20 20:45 | 42.05085 | 19.56953 | 37045 ft | 503 kts | 118° |
| 2026-04-20 20:46 | 42.01799 | 19.65178 | 37044 ft | 502 kts | 118° |
| 2026-04-20 20:46 | 41.98484 | 19.73446 | 37043 ft | 502 kts | 118° |
| 2026-04-20 20:47 | 41.95173 | 19.81711 | 37047 ft | 502 kts | 118° |
| 2026-04-20 20:47 | 41.91852 | 19.89955 | 37047 ft | 502 kts | 118° |
| 2026-04-20 20:48 | 41.88547 | 19.98133 | 37047 ft | 502 kts | 118° |
| 2026-04-20 20:48 | 41.85221 | 20.06355 | 37049 ft | 502 kts | 119° |
| 2026-04-20 20:49 | 41.81881 | 20.14570 | 37020 ft | 501 kts | 119° |
| 2026-04-20 20:49 | 41.78549 | 20.22740 | 37059 ft | 498 kts | 119° |
| 2026-04-20 20:50 | 41.75235 | 20.30865 | 37060 ft | 497 kts | 119° |
| 2026-04-20 20:50 | 41.71947 | 20.38919 | 37056 ft | 496 kts | 119° |
| 2026-04-20 20:51 | 41.68621 | 20.47003 | 37057 ft | 495 kts | 119° |
| 2026-04-20 20:51 | 41.65293 | 20.55073 | 37058 ft | 496 kts | 120° |
| 2026-04-20 20:52 | 41.61963 | 20.63143 | 37037 ft | 496 kts | 120° |
| 2026-04-20 20:52 | 41.58650 | 20.71163 | 37042 ft | 496 kts | 120° |
| 2026-04-20 20:53 | 41.55302 | 20.79220 | 37033 ft | 496 kts | 120° |
| 2026-04-20 20:53 | 41.51952 | 20.87261 | 37030 ft | 496 kts | 120° |
| 2026-04-20 20:54 | 41.48589 | 20.95311 | 37020 ft | 497 kts | 120° |
| 2026-04-20 20:54 | 41.45245 | 21.03297 | 37006 ft | 497 kts | 120° |
| 2026-04-20 20:55 | 41.41874 | 21.11359 | 37018 ft | 498 kts | 120° |
| 2026-04-20 20:55 | 41.38492 | 21.19397 | 37016 ft | 497 kts | 120° |
| 2026-04-20 20:56 | 41.35097 | 21.27421 | 37017 ft | 497 kts | 120° |
| 2026-04-20 20:56 | 41.31735 | 21.35374 | 37018 ft | 497 kts | 121° |
| 2026-04-20 20:57 | 41.28340 | 21.43368 | 37012 ft | 496 kts | 121° |
| 2026-04-20 20:57 | 41.24947 | 21.51362 | 37011 ft | 497 kts | 121° |
| 2026-04-20 20:58 | 41.21547 | 21.59348 | 37012 ft | 497 kts | 121° |
| 2026-04-20 20:58 | 41.18137 | 21.67324 | 37006 ft | 496 kts | 121° |
| 2026-04-20 20:59 | 41.14739 | 21.75228 | 37014 ft | 496 kts | 121° |
| 2026-04-20 20:59 | 41.11329 | 21.83163 | 37026 ft | 493 kts | 121° |
| 2026-04-20 21:00 | 41.07924 | 21.91037 | 37010 ft | 491 kts | 124° |
| 2026-04-20 21:00 | 41.03904 | 21.98300 | 37011 ft | 488 kts | 129° |
| 2026-04-20 21:01 | 40.99820 | 22.05473 | 37011 ft | 487 kts | 128° |
| 2026-04-20 21:01 | 40.95771 | 22.12586 | 37001 ft | 487 kts | 129° |
| 2026-04-20 21:02 | 40.91686 | 22.19721 | 36996 ft | 486 kts | 128° |
| 2026-04-20 21:02 | 40.87597 | 22.26842 | 36993 ft | 486 kts | 128° |
| 2026-04-20 21:03 | 40.83516 | 22.33962 | 36988 ft | 486 kts | 128° |
| 2026-04-20 21:03 | 40.79464 | 22.41016 | 36984 ft | 486 kts | 129° |
| 2026-04-20 21:04 | 40.75371 | 22.48107 | 36966 ft | 485 kts | 128° |
| 2026-04-20 21:04 | 40.71279 | 22.55176 | 36977 ft | 485 kts | 128° |
| 2026-04-20 21:05 | 40.67188 | 22.62232 | 36978 ft | 484 kts | 128° |
| 2026-04-20 21:05 | 40.63128 | 22.69227 | 36981 ft | 484 kts | 129° |
| 2026-04-20 21:06 | 40.59038 | 22.76263 | 36982 ft | 484 kts | 129° |
| 2026-04-20 21:06 | 40.54939 | 22.83289 | 36985 ft | 484 kts | 128° |
| 2026-04-20 21:07 | 40.50837 | 22.90303 | 36986 ft | 484 kts | 128° |
| 2026-04-20 21:07 | 40.46656 | 22.97144 | 36985 ft | 482 kts | 136° |
| 2026-04-20 21:08 | 40.41414 | 23.02518 | 36979 ft | 477 kts | 152° |
| 2026-04-20 21:08 | 40.35731 | 23.07019 | 36975 ft | 477 kts | 151° |
| 2026-04-20 21:09 | 40.30055 | 23.11540 | 36864 ft | 478 kts | 151° |
| 2026-04-20 21:09 | 40.27214 | 23.13805 | 36604 ft | 478 kts | 151° |
| 2026-04-20 21:09 | 40.24406 | 23.16039 | 36340 ft | 478 kts | 151° |
| 2026-04-20 21:10 | 40.21558 | 23.18302 | 35541 ft | 479 kts | 151° |
| 2026-04-20 21:10 | 40.18697 | 23.20571 | 34600 ft | 483 kts | 151° |
| 2026-04-20 21:10 | 40.15811 | 23.22856 | 33606 ft | 487 kts | 151° |
| 2026-04-20 21:10 | 40.12903 | 23.25156 | 32499 ft | 490 kts | 151° |
| 2026-04-20 21:11 | 40.09975 | 23.27468 | 31329 ft | 495 kts | 151° |
| 2026-04-20 21:11 | 40.07018 | 23.29801 | 30265 ft | 497 kts | 150° |
| 2026-04-20 21:11 | 40.04079 | 23.32120 | 29560 ft | 490 kts | 150° |
| 2026-04-20 21:11 | 40.01176 | 23.34409 | 28803 ft | 485 kts | 151° |
| 2026-04-20 21:12 | 39.98343 | 23.36636 | 28085 ft | 479 kts | 151° |
| 2026-04-20 21:12 | 39.95505 | 23.38865 | 27373 ft | 474 kts | 150° |
| 2026-04-20 21:12 | 39.92687 | 23.41075 | 26660 ft | 470 kts | 150° |
| 2026-04-20 21:12 | 39.89897 | 23.43262 | 25962 ft | 467 kts | 150° |
| 2026-04-20 21:13 | 39.87121 | 23.45436 | 25253 ft | 463 kts | 150° |
| 2026-04-20 21:13 | 39.84402 | 23.47568 | 24419 ft | 451 kts | 150° |
| 2026-04-20 21:13 | 39.81742 | 23.49651 | 23499 ft | 442 kts | 151° |
| 2026-04-20 21:13 | 39.79128 | 23.51696 | 22406 ft | 435 kts | 151° |
| 2026-04-20 21:14 | 39.76549 | 23.53710 | 21347 ft | 430 kts | 151° |
| 2026-04-20 21:14 | 39.74038 | 23.55667 | 20298 ft | 425 kts | 151° |
| 2026-04-20 21:14 | 39.71511 | 23.57635 | 19274 ft | 420 kts | 150° |
| 2026-04-20 21:14 | 39.69020 | 23.59575 | 18323 ft | 415 kts | 150° |
| 2026-04-20 21:15 | 39.66565 | 23.61485 | 17265 ft | 409 kts | 150° |
| 2026-04-20 21:15 | 39.64140 | 23.63369 | 16225 ft | 404 kts | 150° |
| 2026-04-20 21:15 | 39.61744 | 23.65230 | 15220 ft | 399 kts | 150° |
| 2026-04-20 21:15 | 39.59379 | 23.67066 | 14249 ft | 394 kts | 150° |
| 2026-04-20 21:16 | 39.57043 | 23.68875 | 13236 ft | 388 kts | 150° |
| 2026-04-20 21:16 | 39.54778 | 23.70627 | 12455 ft | 377 kts | 150° |
| 2026-04-20 21:16 | 39.52563 | 23.72341 | 12172 ft | 368 kts | 150° |
| 2026-04-20 21:16 | 39.50372 | 23.74036 | 11182 ft | 366 kts | 150° |
| 2026-04-20 21:17 | 39.48200 | 23.75714 | 10202 ft | 361 kts | 150° |
| 2026-04-20 21:17 | 39.46056 | 23.77370 | 9201 ft | 356 kts | 150° |
| 2026-04-20 21:17 | 39.43993 | 23.78963 | 8880 ft | 331 kts | 150° |
| 2026-04-20 21:17 | 39.42094 | 23.80431 | 8746 ft | 306 kts | 150° |
| 2026-04-20 21:18 | 39.40292 | 23.81820 | 8620 ft | 299 kts | 150° |
| 2026-04-20 21:18 | 39.38529 | 23.83176 | 8499 ft | 299 kts | 150° |
| 2026-04-20 21:18 | 39.36750 | 23.84548 | 8370 ft | 297 kts | 150° |
| 2026-04-20 21:18 | 39.34979 | 23.85914 | 8243 ft | 296 kts | 150° |
| 2026-04-20 21:19 | 39.33211 | 23.87275 | 8114 ft | 296 kts | 150° |
| 2026-04-20 21:19 | 39.31446 | 23.88629 | 7990 ft | 294 kts | 150° |
| 2026-04-20 21:19 | 39.29729 | 23.89950 | 7862 ft | 281 kts | 150° |
| 2026-04-20 21:20 | 39.26510 | 23.92429 | 7610 ft | 258 kts | 150° |
| 2026-04-20 21:20 | 39.24954 | 23.93464 | 7472 ft | 247 kts | 162° |
| 2026-04-20 21:20 | 39.23320 | 23.93918 | 7355 ft | 242 kts | 179° |
| 2026-04-20 21:20 | 39.21654 | 23.93792 | 7227 ft | 239 kts | 195° |
| 2026-04-20 21:21 | 39.20096 | 23.93108 | 7102 ft | 235 kts | 211° |
| 2026-04-20 21:21 | 39.18753 | 23.91942 | 6985 ft | 231 kts | 226° |
| 2026-04-20 21:21 | 39.17708 | 23.90398 | 6861 ft | 227 kts | 240° |
| 2026-04-20 21:21 | 39.17011 | 23.88592 | 6737 ft | 223 kts | 255° |
| 2026-04-20 21:22 | 39.16697 | 23.86697 | 6623 ft | 211 kts | 268° |
| 2026-04-20 21:22 | 39.16727 | 23.84852 | 6497 ft | 202 kts | 277° |
| 2026-04-20 21:22 | 39.16837 | 23.83098 | 6376 ft | 197 kts | 277° |
| 2026-04-20 21:22 | 39.16940 | 23.81339 | 6251 ft | 196 kts | 276° |
| 2026-04-20 21:23 | 39.17040 | 23.79590 | 6125 ft | 196 kts | 276° |
| 2026-04-20 21:23 | 39.17140 | 23.77843 | 5998 ft | 195 kts | 276° |
| 2026-04-20 21:23 | 39.17240 | 23.76104 | 5871 ft | 194 kts | 276° |
| 2026-04-20 21:23 | 39.17339 | 23.74366 | 5745 ft | 194 kts | 276° |
| 2026-04-20 21:24 | 39.17439 | 23.72632 | 5617 ft | 194 kts | 276° |
| 2026-04-20 21:24 | 39.17538 | 23.70899 | 5490 ft | 193 kts | 276° |
| 2026-04-20 21:24 | 39.17635 | 23.69189 | 5396 ft | 187 kts | 276° |
| 2026-04-20 21:24 | 39.17724 | 23.67574 | 5274 ft | 175 kts | 276° |
| 2026-04-20 21:25 | 39.17807 | 23.66077 | 5140 ft | 165 kts | 276° |
| 2026-04-20 21:25 | 39.17911 | 23.64652 | 5008 ft | 155 kts | 284° |
| 2026-04-20 21:25 | 39.18292 | 23.63415 | 4876 ft | 144 kts | 302° |
| 2026-04-20 21:25 | 39.18938 | 23.62457 | 4751 ft | 142 kts | 320° |
| 2026-04-20 21:26 | 39.19785 | 23.61814 | 4508 ft | 142 kts | 336° |
| 2026-04-20 21:26 | 39.20761 | 23.61553 | 4168 ft | 146 kts | 354° |
| 2026-04-20 21:26 | 39.21779 | 23.61550 | 3812 ft | 147 kts | 354° |
| 2026-04-20 21:26 | 39.22826 | 23.61538 | 3366 ft | 152 kts | 354° |
| 2026-04-20 21:27 | 39.23869 | 23.61518 | 3018 ft | 150 kts | 353° |
| 2026-04-20 21:27 | 39.24922 | 23.61486 | 2788 ft | 152 kts | 353° |
| 2026-04-20 21:27 | 39.25982 | 23.61453 | 2564 ft | 151 kts | 353° |
| 2026-04-20 21:27 | 39.27007 | 23.61422 | 2425 ft | 146 kts | 352° |
| 2026-04-20 21:28 | 39.28023 | 23.61387 | 2188 ft | 146 kts | 352° |
| 2026-04-20 21:28 | 39.29040 | 23.61354 | 1834 ft | 147 kts | 352° |
| 2026-04-20 21:28 | 39.30027 | 23.61323 | 1858 ft | 140 kts | 352° |
| 2026-04-20 21:28 | 39.30999 | 23.61172 | 1771 ft | 136 kts | 333° |
| 2026-04-20 21:29 | 39.31754 | 23.60501 | 1741 ft | 130 kts | 306° |
| 2026-04-20 21:29 | 39.32160 | 23.59492 | 1752 ft | 130 kts | 282° |
| 2026-04-20 21:29 | 39.32160 | 23.58332 | 1742 ft | 131 kts | 256° |
| 2026-04-20 21:29 | 39.31732 | 23.57294 | 1751 ft | 133 kts | 233° |
| 2026-04-20 21:30 | 39.31140 | 23.56382 | 1741 ft | 132 kts | 231° |
| 2026-04-20 21:30 | 39.30413 | 23.55648 | 1746 ft | 134 kts | 213° |
| 2026-04-20 21:30 | 39.29544 | 23.55207 | 1746 ft | 134 kts | 204° |
| 2026-04-20 21:30 | 39.28656 | 23.54825 | 1747 ft | 134 kts | 204° |
| 2026-04-20 21:31 | 39.27775 | 23.54446 | 1744 ft | 133 kts | 204° |
| 2026-04-20 21:31 | 39.26903 | 23.54068 | 1745 ft | 134 kts | 204° |
| 2026-04-20 21:31 | 39.26018 | 23.53689 | 1697 ft | 136 kts | 204° |
| 2026-04-20 21:31 | 39.25121 | 23.53330 | 1489 ft | 134 kts | 202° |
| 2026-04-20 21:32 | 39.24236 | 23.52979 | 1307 ft | 133 kts | 202° |
| 2026-04-20 21:32 | 39.23351 | 23.52630 | 1128 ft | 133 kts | 200° |
| 2026-04-20 21:32 | 39.22459 | 23.52278 | 951 ft | 134 kts | 199° |
| 2026-04-20 21:32 | 39.21566 | 23.51925 | 776 ft | 135 kts | 199° |
| 2026-04-20 21:33 | 39.20670 | 23.51570 | 596 ft | 135 kts | 198° |
| 2026-04-20 21:33 | 39.19774 | 23.51215 | 411 ft | 134 kts | 197° |
| 2026-04-20 21:33 | 39.18891 | 23.50866 | 243 ft | 135 kts | 197° |
| 2026-04-20 21:33 | 39.18004 | 23.50494 | 46 ft | 132 kts | 199° |
| 2026-04-20 21:34 | 39.17519 | 23.50271 | 37 ft | 27 kts | 202° |
| 2026-04-20 21:34 | 39.17365 | 23.50205 | 30 ft | 23 kts | 199° |
| 2026-04-20 21:34 | 39.17190 | 23.50128 | 22 ft | 25 kts | 199° |
| 2026-04-20 21:34 | 39.17071 | 23.50062 | 18 ft | 13 kts | 214° |
| 2026-04-20 21:35 | 39.17025 | 23.50083 | 15 ft | 6 kts | 36° |
| 2026-04-20 21:35 | 39.17071 | 23.50096 | 20 ft | 8 kts | 11° |
| 2026-04-20 21:35 | 39.17177 | 23.50130 | 27 ft | 21 kts | 17° |
| 2026-04-20 21:35 | 39.17318 | 23.50189 | 27 ft | 21 kts | 18° |
| 2026-04-20 21:36 | 39.17442 | 23.50245 | 36 ft | 19 kts | 22° |
| 2026-04-20 21:36 | 39.17561 | 23.50239 | 39 ft | 14 kts | 328° |
| 2026-04-20 21:36 | 39.17644 | 23.50240 | 40 ft | 12 kts | 18° |
| 2026-04-20 21:36 | 39.17719 | 23.50266 | 40 ft | 9 kts | 357° |
| 2026-04-20 21:37 | 39.17766 | 23.50229 | 39 ft | 7 kts | 321° |
| 2026-04-20 21:37 | 39.17804 | 23.50193 | 41 ft | 6 kts | 324° |
| 2026-04-20 21:37 | 39.17815 | 23.50183 | 41 ft | 0 kts | 324° |